createdAt,value
2023-03-08T00:00:03.218Z,2.50
2023-03-08T00:02:29.609Z,2.22
2023-03-08T00:04:55.993Z,2.30
2023-03-08T00:07:22.389Z,2.70
2023-03-08T00:09:48.707Z,3.03
2023-03-08T00:12:15.087Z,2.70
2023-03-08T00:14:41.455Z,3.00
2023-03-08T00:17:07.797Z,3.92
2023-03-08T00:19:34.122Z,3.47
2023-03-08T00:22:00.531Z,3.40
2023-03-08T00:24:26.850Z,3.47
2023-03-08T00:26:53.215Z,3.12
2023-03-08T00:29:19.622Z,2.90
2023-03-08T00:31:46.018Z,2.95
2023-03-08T00:34:12.391Z,3.60
2023-03-08T00:36:38.693Z,3.15
2023-03-08T00:39:05.019Z,3.85
2023-03-08T00:41:31.442Z,3.45
2023-03-08T00:43:57.814Z,3.83
2023-03-08T00:46:24.340Z,3.70
2023-03-08T00:48:50.674Z,3.58
2023-03-08T00:51:17.055Z,3.22
2023-03-08T00:53:43.406Z,3.05
2023-03-08T00:56:09.727Z,3.03
2023-03-08T00:58:36.050Z,2.35
2023-03-08T01:01:02.451Z,2.20
2023-03-08T01:03:28.841Z,2.58
2023-03-08T01:05:55.196Z,2.30
2023-03-08T01:08:21.503Z,2.00
2023-03-08T01:10:47.869Z,2.55
2023-03-08T01:13:14.186Z,3.12
2023-03-08T01:15:40.503Z,3.25
2023-03-08T01:18:06.852Z,3.62
2023-03-08T01:20:33.157Z,3.92
2023-03-08T01:22:59.519Z,3.85
2023-03-08T01:25:25.870Z,3.65
2023-03-08T01:27:52.230Z,4.00
2023-03-08T01:30:18.536Z,3.95
2023-03-08T01:32:44.876Z,3.53
2023-03-08T01:35:11.182Z,3.33
2023-03-08T01:37:37.527Z,3.28
2023-03-08T01:40:05.088Z,3.25
2023-03-08T01:42:31.400Z,3.92
2023-03-08T01:44:57.725Z,3.20
2023-03-08T01:47:24.066Z,3.03
2023-03-08T01:49:50.395Z,3.00
2023-03-08T01:52:16.699Z,3.40
2023-03-08T01:54:43.026Z,3.00
2023-03-08T01:57:09.353Z,2.80
2023-03-08T01:59:35.709Z,3.12
2023-03-08T02:02:02.021Z,2.40
2023-03-08T02:04:28.323Z,2.58
2023-03-08T02:06:54.651Z,2.35
2023-03-08T02:09:20.991Z,2.10
2023-03-08T02:11:47.295Z,2.40
2023-03-08T02:14:13.610Z,2.10
2023-03-08T02:16:39.974Z,2.85
2023-03-08T02:19:06.391Z,2.80
2023-03-08T02:21:32.724Z,2.50
2023-03-08T02:23:59.035Z,2.90
2023-03-08T02:26:25.350Z,2.50
2023-03-08T02:28:51.763Z,3.00
2023-03-08T02:31:18.105Z,2.20
2023-03-08T02:33:44.464Z,2.85
2023-03-08T02:36:10.884Z,2.55
2023-03-08T02:38:37.252Z,2.58
2023-03-08T02:41:03.582Z,2.95
2023-03-08T02:43:29.925Z,3.37
2023-03-08T02:45:56.274Z,3.00
2023-03-08T02:48:22.626Z,3.17
2023-03-08T02:50:49.001Z,3.20
2023-03-08T02:53:15.329Z,3.85
2023-03-08T02:55:41.646Z,3.17
2023-03-08T02:58:07.972Z,3.35
2023-03-08T03:00:34.302Z,3.40
2023-03-08T03:03:00.638Z,3.17
2023-03-08T03:05:27.031Z,3.60
2023-03-08T03:07:55.439Z,3.80
2023-03-08T03:10:21.822Z,3.75
2023-03-08T03:12:48.155Z,4.12
2023-03-08T03:15:14.458Z,4.20
2023-03-08T03:17:40.838Z,3.80
2023-03-08T03:20:08.250Z,4.15
2023-03-08T03:22:34.575Z,4.43
2023-03-08T03:25:00.896Z,3.55
2023-03-08T03:27:27.236Z,3.50
2023-03-08T03:29:53.569Z,3.60
2023-03-08T03:32:19.918Z,4.03
2023-03-08T03:34:46.323Z,3.70
2023-03-08T03:37:12.681Z,3.70
2023-03-08T03:39:39.207Z,3.95
2023-03-08T03:42:05.517Z,4.57
2023-03-08T03:44:31.833Z,3.95
2023-03-08T03:46:58.135Z,4.37
2023-03-08T03:49:24.466Z,3.83
2023-03-08T03:51:50.806Z,3.83
2023-03-08T03:54:17.125Z,4.45
2023-03-08T03:56:43.451Z,4.70
2023-03-08T03:59:09.770Z,4.93
2023-03-08T04:01:36.086Z,5.55
2023-03-08T04:04:02.454Z,6.43
2023-03-08T04:06:28.867Z,5.85
2023-03-08T04:08:55.170Z,7.87
2023-03-08T04:11:21.483Z,5.87
2023-03-08T04:13:47.896Z,6.57
2023-03-08T04:16:14.424Z,6.12
2023-03-08T04:18:40.772Z,6.07
2023-03-08T04:21:07.089Z,6.15
2023-03-08T04:23:33.500Z,6.20
2023-03-08T04:25:59.831Z,6.18
2023-03-08T04:28:26.130Z,6.93
2023-03-08T04:30:52.529Z,6.45
2023-03-08T04:33:18.854Z,6.55
2023-03-08T04:35:45.225Z,6.55
2023-03-08T04:38:12.271Z,7.12
2023-03-08T04:40:58.586Z,7.50
2023-03-08T04:43:24.922Z,7.37
2023-03-08T04:45:51.248Z,6.95
2023-03-08T04:48:17.607Z,6.47
2023-03-08T04:50:43.986Z,7.43
2023-03-08T04:53:10.293Z,7.32
2023-03-08T04:55:36.614Z,6.45
2023-03-08T04:58:03.051Z,6.10
2023-03-08T05:00:29.383Z,6.43
2023-03-08T05:02:55.677Z,6.65
2023-03-08T05:05:21.994Z,6.85
2023-03-08T05:07:48.378Z,7.93
2023-03-08T05:10:14.772Z,7.50
2023-03-08T05:12:41.092Z,8.00
2023-03-08T05:15:07.432Z,9.02
2023-03-08T05:17:33.764Z,9.43
2023-03-08T05:20:00.116Z,9.95
2023-03-08T05:22:26.470Z,11.75
2023-03-08T05:24:52.822Z,13.07
2023-03-08T05:27:19.314Z,13.62
2023-03-08T05:29:45.617Z,13.10
2023-03-08T05:32:12.284Z,13.80
2023-03-08T05:34:38.638Z,12.57
2023-03-08T05:37:04.978Z,13.82
2023-03-08T05:39:31.293Z,11.80
2023-03-08T05:41:57.626Z,11.70
2023-03-08T05:44:23.941Z,10.73
2023-03-08T05:46:50.267Z,11.38
2023-03-08T05:49:16.621Z,11.48
2023-03-08T05:51:42.936Z,11.35
2023-03-08T05:54:09.239Z,11.35
2023-03-08T05:56:35.572Z,10.55
2023-03-08T05:59:01.925Z,9.75
2023-03-08T06:01:28.326Z,10.30
2023-03-08T06:03:54.665Z,10.13
2023-03-08T06:06:20.978Z,10.68
2023-03-08T06:08:47.331Z,10.35
2023-03-08T06:11:13.711Z,11.05
2023-03-08T06:13:40.215Z,9.80
2023-03-08T06:16:06.592Z,11.25
2023-03-08T06:18:33.621Z,10.10
2023-03-08T06:20:59.976Z,11.68
2023-03-08T06:23:26.425Z,10.73
2023-03-08T06:25:52.739Z,10.27
2023-03-08T06:28:19.124Z,10.07
2023-03-08T06:30:45.521Z,10.23
2023-03-08T06:33:11.878Z,11.30
2023-03-08T06:35:38.257Z,10.32
2023-03-08T06:38:04.605Z,10.10
2023-03-08T06:40:30.975Z,10.63
2023-03-08T06:42:57.342Z,9.70
2023-03-08T06:45:23.683Z,9.50
2023-03-08T06:47:49.989Z,9.70
2023-03-08T06:50:16.305Z,9.82
2023-03-08T06:52:42.637Z,9.32
2023-03-08T06:55:08.952Z,9.10
2023-03-08T06:57:35.405Z,9.23
2023-03-08T07:00:01.866Z,8.48
2023-03-08T07:02:28.182Z,8.35
2023-03-08T07:04:54.498Z,9.35
2023-03-08T07:07:20.902Z,8.48
2023-03-08T07:09:47.223Z,8.02
2023-03-08T07:12:13.564Z,7.90
2023-03-08T07:14:39.887Z,7.50
2023-03-08T07:17:06.234Z,8.40
2023-03-08T07:19:32.562Z,8.05
2023-03-08T07:21:58.924Z,7.95
2023-03-08T07:24:25.246Z,9.45
2023-03-08T07:26:51.590Z,9.02
2023-03-08T07:29:17.887Z,8.43
2023-03-08T07:31:44.348Z,9.00
2023-03-08T07:34:10.677Z,8.70
2023-03-08T07:36:38.309Z,8.38
2023-03-08T07:39:04.633Z,9.75
2023-03-08T07:41:33.066Z,9.60
2023-03-08T07:43:59.406Z,8.18
2023-03-08T07:46:25.818Z,7.87
2023-03-08T07:48:54.764Z,7.97
2023-03-08T07:51:21.551Z,8.45
2023-03-08T07:53:47.915Z,8.02
2023-03-08T07:56:14.435Z,7.90
2023-03-08T07:58:40.978Z,8.07
2023-03-08T08:01:07.292Z,8.02
2023-03-08T08:03:33.759Z,8.40
2023-03-08T08:06:00.136Z,8.02
2023-03-08T08:08:26.508Z,8.30
2023-03-08T08:10:52.819Z,7.45
2023-03-08T08:13:19.159Z,7.95
2023-03-08T08:15:45.502Z,8.48
2023-03-08T08:18:12.114Z,8.13
2023-03-08T08:20:38.494Z,8.25
2023-03-08T08:23:04.801Z,8.77
2023-03-08T08:25:31.102Z,8.50
2023-03-08T08:27:57.587Z,7.60
2023-03-08T08:30:23.920Z,7.55
2023-03-08T08:32:50.360Z,7.72
2023-03-08T08:35:16.740Z,8.38
2023-03-08T08:37:43.086Z,8.13
2023-03-08T08:40:10.656Z,7.82
2023-03-08T08:42:37.041Z,7.75
2023-03-08T08:45:03.472Z,7.75
2023-03-08T08:47:29.844Z,7.40
2023-03-08T08:49:56.169Z,7.12
2023-03-08T08:52:22.651Z,7.10
2023-03-08T08:54:49.084Z,6.50
2023-03-08T08:57:15.458Z,7.20
2023-03-08T08:59:41.803Z,7.00
2023-03-08T09:02:08.158Z,6.53
2023-03-08T09:04:34.784Z,6.90
2023-03-08T09:07:01.199Z,7.12
2023-03-08T09:09:27.617Z,7.72
2023-03-08T09:11:55.730Z,7.65
2023-03-08T09:14:22.262Z,7.72
2023-03-08T09:16:48.689Z,7.40
2023-03-08T09:19:15.674Z,8.13
2023-03-08T09:21:42.006Z,8.27
2023-03-08T09:24:10.562Z,8.00
2023-03-08T09:26:36.899Z,8.57
2023-03-08T09:29:05.515Z,8.35
2023-03-08T09:31:32.016Z,7.47
2023-03-08T09:33:58.622Z,8.55
2023-03-08T09:36:24.944Z,8.13
2023-03-08T09:38:52.293Z,8.38
2023-03-08T09:41:18.608Z,8.23
2023-03-08T09:43:44.958Z,8.30
2023-03-08T09:46:11.312Z,8.15
2023-03-08T09:48:37.646Z,7.85
2023-03-08T09:51:04.253Z,7.37
2023-03-08T09:53:30.608Z,8.02
2023-03-08T09:55:57.074Z,7.72
2023-03-08T09:58:23.481Z,7.12
2023-03-08T10:00:49.874Z,6.97
2023-03-08T10:03:16.370Z,6.55
2023-03-08T10:05:42.788Z,7.00
2023-03-08T10:08:09.127Z,7.45
2023-03-08T10:10:35.446Z,7.05
2023-03-08T10:13:01.753Z,7.40
2023-03-08T10:15:28.137Z,6.32
2023-03-08T10:17:54.542Z,6.50
2023-03-08T10:20:21.179Z,7.47
2023-03-08T10:22:47.485Z,6.40
2023-03-08T10:25:13.816Z,6.97
2023-03-08T10:27:40.175Z,6.85
2023-03-08T10:30:06.512Z,6.00
2023-03-08T10:32:33.287Z,4.87
2023-03-08T10:34:59.652Z,4.80
2023-03-08T10:37:25.980Z,5.32
2023-03-08T10:39:53.501Z,4.68
2023-03-08T10:42:21.221Z,4.80
2023-03-08T10:44:47.540Z,5.20
2023-03-08T10:47:13.895Z,5.12
2023-03-08T10:49:40.194Z,5.35
2023-03-08T10:52:06.507Z,4.93
2023-03-08T10:54:32.874Z,5.03
2023-03-08T10:56:59.260Z,4.47
2023-03-08T10:59:29.726Z,4.95
2023-03-08T11:01:56.228Z,5.00
2023-03-08T11:04:22.629Z,5.07
2023-03-08T11:06:49.001Z,5.53
2023-03-08T11:09:15.373Z,4.65
2023-03-08T11:11:41.703Z,5.12
2023-03-08T11:14:08.029Z,5.15
2023-03-08T11:16:34.420Z,5.93
2023-03-08T11:19:00.798Z,6.03
2023-03-08T11:21:27.130Z,5.80
2023-03-08T11:23:53.528Z,6.00
2023-03-08T11:26:19.901Z,6.60
2023-03-08T11:28:46.235Z,6.28
2023-03-08T11:31:13.371Z,6.75
2023-03-08T11:33:39.953Z,6.28
2023-03-08T11:36:06.443Z,6.78
2023-03-08T11:38:32.915Z,7.35
2023-03-08T11:40:59.252Z,8.25
2023-03-08T11:43:25.562Z,7.65
2023-03-08T11:45:51.926Z,7.97
2023-03-08T11:48:18.233Z,9.45
2023-03-08T11:50:44.576Z,8.50
2023-03-08T11:53:11.031Z,9.60
2023-03-08T11:55:37.375Z,9.45
2023-03-08T11:58:03.674Z,10.95
2023-03-08T12:00:30.014Z,11.12
2023-03-08T12:02:56.668Z,10.15
2023-03-08T12:05:23.495Z,11.60
2023-03-08T12:07:50.366Z,11.88
2023-03-08T12:10:16.926Z,13.27
2023-03-08T12:12:43.330Z,13.23
2023-03-08T12:15:09.901Z,13.23
2023-03-08T12:17:37.779Z,13.80
2023-03-08T12:20:08.294Z,13.80
2023-03-08T12:22:34.797Z,13.35
2023-03-08T12:25:01.138Z,14.93
2023-03-08T12:27:27.472Z,14.45
2023-03-08T12:29:53.932Z,13.93
2023-03-08T12:32:20.509Z,14.70
2023-03-08T12:34:46.996Z,14.65
2023-03-08T12:37:13.389Z,15.45
2023-03-08T12:39:39.812Z,15.95
2023-03-08T12:42:06.217Z,14.68
2023-03-08T12:44:32.595Z,14.90
2023-03-08T12:47:03.483Z,14.57
2023-03-08T12:49:30.500Z,14.75
2023-03-08T12:51:56.947Z,15.02
2023-03-08T12:54:23.324Z,14.40
2023-03-08T12:56:49.706Z,13.48
2023-03-08T12:59:16.034Z,12.00
2023-03-08T13:01:42.378Z,10.32
2023-03-08T13:04:08.835Z,10.00
2023-03-08T13:06:35.192Z,10.30
2023-03-08T13:09:01.509Z,9.60
2023-03-08T13:11:27.816Z,9.30
2023-03-08T13:13:54.198Z,8.75
2023-03-08T13:16:20.564Z,9.07
2023-03-08T13:18:46.991Z,10.68
2023-03-08T13:21:13.541Z,8.95
2023-03-08T13:23:40.065Z,8.77
2023-03-08T13:26:06.510Z,9.02
2023-03-08T13:28:46.152Z,10.02
2023-03-08T13:31:13.340Z,9.85
2023-03-08T13:33:39.830Z,8.98
2023-03-08T13:36:06.257Z,9.75
2023-03-08T13:38:32.677Z,9.15
2023-03-08T13:40:59.123Z,8.93
2023-03-08T13:43:25.500Z,9.32
2023-03-08T13:45:51.883Z,9.07
2023-03-08T13:48:19.410Z,9.20
2023-03-08T13:50:45.923Z,9.43
2023-03-08T13:53:12.574Z,8.85
2023-03-08T13:55:38.941Z,8.77
2023-03-08T13:58:05.280Z,9.02
2023-03-08T14:00:31.747Z,8.50
2023-03-08T14:02:58.410Z,8.55
2023-03-08T14:05:24.874Z,7.65
2023-03-08T14:07:51.322Z,7.57
2023-03-08T14:10:18.696Z,8.05
2023-03-08T14:12:45.080Z,7.97
2023-03-08T14:15:11.427Z,7.57
2023-03-08T14:17:37.824Z,6.50
2023-03-08T14:20:06.955Z,6.47
2023-03-08T14:22:39.683Z,6.62
2023-03-08T14:25:06.452Z,5.65
2023-03-08T14:27:33.171Z,5.75
2023-03-08T14:29:59.549Z,5.03
2023-03-08T14:32:25.939Z,5.18
2023-03-08T14:34:52.330Z,5.12
2023-03-08T14:37:18.655Z,5.70
2023-03-08T14:39:44.965Z,5.85
2023-03-08T14:42:11.280Z,5.50
2023-03-08T14:44:37.586Z,6.22
2023-03-08T14:47:03.897Z,6.32
2023-03-08T14:49:30.311Z,6.20
2023-03-08T14:51:56.695Z,6.00
2023-03-08T14:54:23.226Z,5.85
2023-03-08T14:56:49.530Z,6.57
2023-03-08T14:59:27.085Z,6.53
2023-03-08T15:01:54.359Z,6.20
2023-03-08T15:04:20.740Z,6.62
2023-03-08T15:06:47.177Z,7.43
2023-03-08T15:09:13.510Z,8.20
2023-03-08T15:11:39.859Z,8.10
2023-03-08T15:14:06.175Z,7.18
2023-03-08T15:16:32.582Z,8.13
2023-03-08T15:18:58.926Z,7.22
2023-03-08T15:21:25.247Z,8.20
2023-03-08T15:23:51.619Z,8.73
2023-03-08T15:26:20.925Z,5.95
2023-03-08T15:28:47.247Z,7.37
2023-03-08T15:31:13.653Z,6.93
2023-03-08T15:33:40.006Z,7.03
2023-03-08T15:36:06.396Z,7.15
2023-03-08T15:38:32.828Z,7.20
2023-03-08T15:40:59.223Z,7.28
2023-03-08T15:43:25.603Z,6.75
2023-03-08T15:45:52.016Z,7.18
2023-03-08T15:48:18.416Z,7.60
2023-03-08T15:50:44.781Z,7.22
2023-03-08T15:53:11.124Z,7.45
2023-03-08T15:55:40.612Z,7.43
2023-03-08T15:58:08.668Z,7.22
2023-03-08T16:00:35.690Z,7.87
2023-03-08T16:03:02.148Z,8.05
2023-03-08T16:05:29.213Z,8.48
2023-03-08T16:07:55.738Z,8.48
2023-03-08T16:10:22.061Z,10.23
2023-03-08T16:12:48.393Z,9.48
2023-03-08T16:15:14.768Z,24.55
2023-03-08T16:17:41.161Z,23.87
2023-03-08T16:20:07.484Z,17.85
2023-03-08T16:22:33.878Z,17.77
2023-03-08T16:25:00.304Z,17.15
2023-03-08T16:27:26.636Z,11.55
2023-03-08T16:29:52.962Z,10.32
2023-03-08T16:32:19.300Z,12.68
2023-03-08T16:34:50.860Z,31.65
2023-03-08T16:37:17.172Z,63.00
2023-03-08T16:39:43.477Z,62.53
2023-03-08T16:42:09.785Z,11.05
2023-03-08T16:44:36.089Z,9.63
2023-03-08T16:47:02.407Z,10.02
2023-03-08T16:49:29.280Z,14.40
2023-03-08T16:51:55.576Z,42.28
2023-03-08T16:54:21.903Z,17.00
2023-03-08T16:56:48.213Z,13.20
2023-03-08T16:59:14.631Z,14.80
2023-03-08T17:01:42.551Z,12.15
2023-03-08T17:04:08.934Z,14.93
2023-03-08T17:06:35.318Z,14.02
2023-03-08T17:09:01.866Z,13.77
2023-03-08T17:11:28.248Z,11.70
2023-03-08T17:13:55.539Z,10.07
2023-03-08T17:16:21.881Z,9.35
2023-03-08T17:18:48.211Z,8.65
2023-03-08T17:21:14.539Z,8.65
2023-03-08T17:23:40.857Z,9.02
2023-03-08T17:26:07.203Z,10.50
2023-03-08T17:28:33.514Z,9.80
2023-03-08T17:30:59.924Z,9.38
2023-03-08T17:33:26.673Z,10.55
2023-03-08T17:35:53.270Z,11.32
2023-03-08T17:38:19.634Z,11.48
2023-03-08T17:40:46.162Z,10.88
2023-03-08T17:43:15.571Z,9.63
2023-03-08T17:45:41.884Z,9.80
2023-03-08T17:48:10.319Z,10.05
2023-03-08T17:50:36.726Z,9.90
2023-03-08T17:53:03.044Z,10.45
2023-03-08T17:55:29.386Z,8.77
2023-03-08T17:57:55.709Z,9.43
2023-03-08T18:00:22.040Z,9.85
2023-03-08T18:02:48.457Z,10.43
2023-03-08T18:05:14.855Z,10.18
2023-03-08T18:07:41.918Z,9.73
2023-03-08T18:10:11.044Z,10.20
2023-03-08T18:12:37.378Z,8.63
2023-03-08T18:15:04.520Z,9.95
2023-03-08T18:17:30.897Z,33.90
2023-03-08T18:19:57.262Z,18.95
2023-03-08T18:22:23.749Z,10.45
2023-03-08T18:24:50.057Z,10.63
2023-03-08T18:27:16.458Z,10.07
2023-03-08T18:29:42.805Z,10.20
2023-03-08T18:32:11.638Z,10.10
2023-03-08T18:34:38.609Z,10.13
2023-03-08T18:37:04.941Z,10.20
2023-03-08T18:39:31.476Z,10.05
2023-03-08T18:42:00.042Z,10.30
2023-03-08T18:44:26.402Z,9.82
2023-03-08T18:46:52.800Z,10.10
2023-03-08T18:49:19.214Z,9.45
2023-03-08T18:51:45.601Z,10.45
2023-03-08T18:54:11.929Z,10.88
2023-03-08T18:56:38.264Z,10.65
2023-03-08T18:59:04.644Z,10.40
2023-03-08T19:01:31.390Z,10.82
2023-03-08T19:03:57.763Z,10.73
2023-03-08T19:06:24.092Z,10.25
2023-03-08T19:08:50.415Z,10.95
2023-03-08T19:11:16.761Z,10.95
2023-03-08T19:13:44.571Z,12.05
2023-03-08T19:16:10.931Z,11.07
2023-03-08T19:18:37.242Z,11.25
2023-03-08T19:21:03.593Z,12.23
2023-03-08T19:23:29.931Z,11.57
2023-03-08T19:26:15.159Z,12.65
2023-03-08T19:28:44.535Z,12.43
2023-03-08T19:31:10.950Z,12.77
2023-03-08T19:33:37.295Z,12.30
2023-03-08T19:36:03.651Z,11.95
2023-03-08T19:38:30.041Z,12.23
2023-03-08T19:40:56.347Z,12.93
2023-03-08T19:43:22.684Z,12.63
2023-03-08T19:45:49.081Z,12.93
2023-03-08T19:48:15.475Z,12.43
2023-03-08T19:50:41.928Z,12.77
2023-03-08T19:53:08.259Z,12.18
2023-03-08T19:55:34.588Z,12.48
2023-03-08T19:58:00.908Z,12.60
2023-03-08T20:00:28.893Z,13.43
2023-03-08T20:02:56.577Z,13.18
2023-03-08T20:05:22.920Z,13.07
2023-03-08T20:07:52.541Z,12.95
2023-03-08T20:10:18.940Z,13.88
2023-03-08T20:12:46.116Z,13.45
2023-03-08T20:15:12.433Z,12.77
2023-03-08T20:17:38.874Z,13.77
2023-03-08T20:20:06.529Z,13.68
2023-03-08T20:22:32.860Z,13.65
2023-03-08T20:24:59.189Z,13.05
2023-03-08T20:27:25.491Z,13.05
2023-03-08T20:29:51.812Z,12.80
2023-03-08T20:32:18.136Z,14.10
2023-03-08T20:34:44.454Z,13.95
2023-03-08T20:37:10.782Z,13.95
2023-03-08T20:39:38.514Z,13.70
2023-03-08T20:42:04.852Z,13.30
2023-03-08T20:44:34.560Z,13.70
2023-03-08T20:47:01.518Z,13.85
2023-03-08T20:49:28.758Z,14.15
2023-03-08T20:51:55.163Z,13.93
2023-03-08T20:54:21.495Z,13.52
2023-03-08T20:56:48.642Z,14.38
2023-03-08T20:59:16.149Z,15.02
2023-03-08T21:01:45.033Z,14.35
2023-03-08T21:04:12.141Z,14.60
2023-03-08T21:06:38.469Z,14.27
2023-03-08T21:09:04.862Z,14.63
2023-03-08T21:11:31.194Z,14.15
2023-03-08T21:13:57.724Z,14.48
2023-03-08T21:16:24.077Z,14.75
2023-03-08T21:18:50.419Z,15.05
2023-03-08T21:21:16.736Z,13.80
2023-03-08T21:23:43.055Z,14.55
2023-03-08T21:26:09.458Z,14.30
2023-03-08T21:28:35.807Z,14.75
2023-03-08T21:31:02.173Z,17.15
2023-03-08T21:33:28.512Z,15.80
2023-03-08T21:35:54.916Z,15.02
2023-03-08T21:38:22.628Z,14.38
2023-03-08T21:40:50.087Z,14.57
2023-03-08T21:43:16.423Z,15.18
2023-03-08T21:45:42.746Z,15.85
2023-03-08T21:48:09.093Z,15.82
2023-03-08T21:50:38.526Z,15.65
2023-03-08T21:53:04.852Z,15.27
2023-03-08T21:55:31.195Z,15.98
2023-03-08T21:57:57.499Z,16.30
2023-03-08T22:00:23.887Z,14.85
2023-03-08T22:02:50.479Z,16.25
2023-03-08T22:05:17.522Z,15.35
2023-03-08T22:07:43.836Z,16.15
2023-03-08T22:10:10.151Z,15.38
2023-03-08T22:12:36.518Z,16.00
2023-03-08T22:15:02.848Z,15.88
2023-03-08T22:17:29.235Z,15.63
2023-03-08T22:19:55.553Z,16.05
2023-03-08T22:22:21.871Z,15.95
2023-03-08T22:24:48.304Z,15.00
2023-03-08T22:27:14.628Z,15.63
2023-03-08T22:29:40.959Z,15.88
2023-03-08T22:32:11.570Z,16.45
2023-03-08T22:34:37.978Z,16.15
2023-03-08T22:37:06.236Z,16.05
2023-03-08T22:39:32.588Z,15.35
2023-03-08T22:41:58.964Z,15.15
2023-03-08T22:44:25.299Z,14.52
2023-03-08T22:46:51.673Z,14.93
2023-03-08T22:49:17.982Z,15.07
2023-03-08T22:51:44.512Z,15.02
2023-03-08T22:54:10.833Z,15.05
2023-03-08T22:56:37.222Z,15.65
2023-03-08T22:59:03.549Z,15.55
2023-03-08T23:01:30.147Z,15.95
2023-03-08T23:03:57.265Z,15.00
2023-03-08T23:06:23.666Z,15.40
2023-03-08T23:08:50.556Z,15.23
2023-03-08T23:11:17.128Z,16.23
2023-03-08T23:13:43.438Z,15.40
2023-03-08T23:16:09.868Z,16.08
2023-03-08T23:18:36.215Z,14.73
2023-03-08T23:21:03.508Z,15.77
2023-03-08T23:23:29.862Z,15.57
2023-03-08T23:25:56.186Z,15.98
2023-03-08T23:28:22.516Z,15.35
2023-03-08T23:30:48.849Z,16.30
2023-03-08T23:33:15.202Z,16.15
2023-03-08T23:35:41.534Z,14.60
2023-03-08T23:38:07.891Z,14.40
2023-03-08T23:40:34.252Z,14.70
2023-03-08T23:43:00.657Z,15.32
2023-03-08T23:45:27.200Z,15.20
2023-03-08T23:47:53.581Z,15.00
2023-03-08T23:50:19.904Z,14.68
2023-03-08T23:52:46.318Z,15.32
2023-03-08T23:55:12.699Z,16.45
2023-03-08T23:57:39.048Z,16.10
